Flight Track Log - Related Links

Times and Time Zones

All times are in EDT time to prevent confusion due to time zone crossing. See the KAP29 flight status page for this flight to view local times or setup timezone preferences in your user account.


Time Position Orientation Groundspeed Altitude Reporting Facility
EDT Latitude Longitude Course Direction KTS MPH feet Rate Location/Type
Mon 04:21:32 PM 44.4508 -73.9958 109° East 154 177 5,500  Level Boston Center
Mon 04:22:32 PM 44.4642 -73.9353 73° East 149 171 6,500 850 Climbing Boston Center
Mon 04:23:32 PM 44.4650 -73.8769 89° East 149 171 7,200 700 Climbing Boston Center
Mon 04:24:32 PM 44.4592 -73.8217 98° East 143 165 7,900 650 Climbing Boston Center
Mon 04:25:32 PM 44.4539 -73.7489 96° East 156 180 8,500 500 Climbing Boston Center
Mon 04:26:00 PM 44.2770 -73.9748 109° East  Level FlightAware Approximate
Mon 04:26:32 PM 44.4483 -73.6933 98° East 161 185 8,900  Level Boston Center
Mon 04:27:32 PM 44.4344 -73.6319 108° East 166 191 9,100 100 Climbing Boston Center
Mon 04:28:32 PM 44.4142 -73.5706 115° Southeast 166 191 9,100  Level Boston Center
Mon 04:29:32 PM 44.3856 -73.5178 127° Southeast 177 204 9,100  Level Boston Center
Mon 04:30:32 PM 44.3547 -73.4619 128° Southeast 183 211 9,100  Level Boston Center
Mon 04:31:32 PM 44.3219 -73.4092 131° Southeast 183 211 9,100  Level Boston Center
Mon 04:32:32 PM 44.2869 -73.3478 129° Southeast 183 211 9,100  Level Boston Center
Mon 04:33:32 PM 44.2561 -73.2953 129° Southeast 183 211 9,100  Level Boston Center
Mon 04:34:32 PM 44.2294 -73.2483 128° Southeast 170 196 9,100  Level Boston Center
Mon 04:35:32 PM 44.1983 -73.1958 130° Southeast 170 196 9,100  Level Boston Center
Mon 04:36:32 PM 44.1653 -73.1492 135° Southeast 170 196 9,100  Level Boston Center
Mon 04:37:32 PM 44.1322 -73.1083 138° Southeast 159 183 9,100  Level Boston Center
Mon 04:38:32 PM 44.0992 -73.0675 138° Southeast 159 183 9,100  Level Boston Center
Mon 04:39:32 PM 44.0661 -73.0236 136° Southeast 164 189 9,100  Level Boston Center
Mon 04:40:32 PM 44.0350 -72.9831 137° Southeast 164 189 9,100  Level Boston Center
Mon 04:41:32 PM 44.0019 -72.9394 136° Southeast 159 183 9,100  Level Boston Center
Mon 04:42:32 PM 43.9686 -72.8931 135° Southeast 159 183 9,100  Level Boston Center
Mon 04:43:32 PM 43.9419 -72.8408 125° Southeast 164 189 9,100  Level Boston Center
Mon 04:44:32 PM 43.9150 -72.7889 126° Southeast 169 194 9,100  Level Boston Center
Mon 04:45:32 PM 43.8839 -72.7397 131° Southeast 164 189 9,100  Level Boston Center
Mon 04:46:32 PM 43.8528 -72.6906 131° Southeast 164 189 9,100 -50 Level Boston Center
Mon 04:47:32 PM 43.8236 -72.6358 126° Southeast 164 189 9,000 -50 Descending Boston Center
Mon 04:48:32 PM 43.7944 -72.5867 129° Southeast 164 189 9,000 50 Level Boston Center
Mon 04:49:32 PM 43.7675 -72.5350 126° Southeast 164 189 9,100 50 Climbing Boston Center
Mon 04:50:32 PM 43.7383 -72.4831 128° Southeast 164 189 9,100  Level Boston Center
Mon 04:51:32 PM 43.7092 -72.4314 128° Southeast 164 189 9,100  Level Boston Center
Mon 04:52:32 PM 43.6800 -72.3769 127° Southeast 164 189 9,100 -50 Level Boston Center
Mon 04:53:32 PM 43.6486 -72.3253 130° Southeast 164 189 9,000  Descending Boston Center
Mon 04:54:32 PM 43.6194 -72.2767 130° Southeast 164 189 9,100 50 Climbing Boston Center
Mon 04:55:32 PM 43.5922 -72.2250 126° Southeast 164 189 9,100 -50 Level Boston Center
Mon 04:56:33 PM 43.5608 -72.1678 127° Southeast 164 189 9,000  Descending Boston Center
Mon 04:57:32 PM 43.5294 -72.1136 129° Southeast 164 189 9,100 50 Climbing Boston Center
Mon 04:58:32 PM 43.5003 -72.0653 130° Southeast 164 189 9,100 -50 Level Boston Center
Mon 04:59:33 PM 43.4708 -72.0081 125° Southeast 169 194 9,000 -50 Descending Boston Center
Mon 05:00:32 PM 43.4414 -71.9597 130° Southeast 169 194 9,000  Level Boston Center
Mon 05:01:32 PM 43.4078 -71.9172 137° Southeast 169 194 9,000  Level Boston Center
Mon 05:02:32 PM 43.3764 -71.8803 139° Southeast 170 196 9,000  Level Boston Center
Mon 05:03:32 PM 43.3386 -71.8319 137° Southeast 165 190 9,000  Level Boston Center
Mon 05:04:32 PM 43.3072 -71.7953 140° Southeast 165 190 9,000  Level Boston Center
Mon 05:05:32 PM 43.2694 -71.7472 137° Southeast 165 190 9,000  Level Boston Center
Mon 05:06:32 PM 43.2381 -71.7078 138° Southeast 165 190 9,000  Level Boston Center
Mon 05:07:32 PM 43.2000 -71.6597 137° Southeast 165 190 9,000  Level Boston Center
Mon 05:08:32 PM 43.1686 -71.6203 137° Southeast 165 190 9,000  Level Boston Center
Mon 05:09:32 PM 43.1308 -71.5725 137° Southeast 165 190 9,000  Level Boston Center
Mon 05:10:32 PM 43.0969 -71.5331 140° Southeast 165 190 9,000  Level Boston Center
Mon 05:11:30 PM 43.0667 -71.4833 130° Southeast 167 192 9,000 -102 Level KA90
Mon 05:12:30 PM 43.0333 -71.4500 144° Southeast 171 197 8,800 -300 Descending KA90
Mon 05:13:30 PM 42.9833 -71.4000 144° Southeast 186 214 8,400 -400 Descending KA90
Mon 05:14:30 PM 42.9500 -71.3500 132° Southeast 187 215 8,000 -350 Descending KA90
Mon 05:15:30 PM 42.9167 -71.3000 132° Southeast 183 211 7,700 -350 Descending KA90
Mon 05:16:30 PM 42.8833 -71.2500 132° Southeast 180 207 7,300 -450 Descending KA90
Mon 05:17:30 PM 42.8333 -71.2167 154° Southeast 179 206 6,800 -450 Descending KA90
Mon 05:18:30 PM 42.8000 -71.2000 160° South 174 200 6,400 -384 Descending KA90
Mon 05:19:35 PM 42.7333 -71.1667 160° South 171 197 6,000 -300 Descending KA90
Mon 05:20:30 PM 42.7000 -71.1500 160° South 162 186 5,800 -347 Descending KA90
Mon 05:21:36 PM 42.6500 -71.1333 166° South 167 192 5,300 -381 Descending KA90
Mon 05:22:36 PM 42.6167 -71.1167 160° South 170 196 5,000 -150 Descending KA90
Mon 05:23:36 PM 42.5667 -71.1000 166° South 159 183 5,000 -50 Level KA90
Mon 05:24:36 PM 42.5333 -71.1000 180° South 157 181 4,900 -300 Descending KA90
Mon 05:25:36 PM 42.4833 -71.1167 194° South 167 192 4,400 -421 Descending KA90
Mon 05:26:30 PM 42.4333 -71.1167 180° South 172 198 4,100 -200 Descending KA90
Mon 05:27:36 PM 42.3833 -71.1333 194° South 158 182 4,000 -429 Descending KA90
Mon 05:28:36 PM 42.3500 -71.1333 180° South 165 190 3,200 -750 Descending KA90
Mon 05:29:36 PM 42.3167 -71.1000 144° Southeast 154 177 2,500 -950 Descending KA90
Mon 05:30:36 PM 42.3167 -71.0500 90° East 138 159 1,300 -1,050 Descending KA90
Mon 05:31:36 PM 42.3500 -71.0167 36° Northeast 119 137 400 -900 Descending KA90
Mon 05:33:00 PM 42.3500 -71.0000 172° South  Level FlightAware Approximate
Mon 05:40:00 PM 42.3630 -71.0064 172° South  Level Estimated

Login

Don't have an account? Register now (free) for customized features, flight alerts, and more!